Time;durP1;ratioP1;P1;durP2;ratioP2;P2;SDS_P1;SDS_P2;PMS_P1;PMS_P2;Temp;Humidity;BMP_temperature;BMP_pressure;BME280_temperature;BME280_humidity;BME280_pressure;Samples;Min_cycle;Max_cycle;Signal;HPM_P1;HPM_P2
2022/06/12 00:01:09;;;;;;;14.63;3.75;;;;;;;19.41;100.00;102164.22;5015185;28;20038;-50
2022/06/12 00:03:35;;;;;;;10.07;2.83;;;;;;;19.66;100.00;102166.06;5011530;28;20050;-49
2022/06/12 00:06:03;;;;;;;9.20;2.42;;;;;;;19.61;100.00;102164.03;5016892;28;20266;-48
2022/06/12 00:08:31;;;;;;;14.60;2.57;;;;;;;19.54;100.00;102163.25;5013537;28;20030;-47
2022/06/12 00:11:00;;;;;;;13.07;2.63;;;;;;;19.77;100.00;102162.63;5024984;28;20264;-49
2022/06/12 00:13:51;;;;;;;12.93;2.33;;;;;;;19.37;100.00;102156.75;5005335;28;20297;-50
2022/06/12 00:16:18;;;;;;;13.47;2.87;;;;;;;19.25;100.00;102157.47;5013664;28;20288;-48
2022/06/12 00:18:44;;;;;;;17.43;3.20;;;;;;;19.30;100.00;102156.81;5015607;28;20276;-50
2022/06/12 00:21:12;;;;;;;16.42;4.75;;;;;;;19.58;100.00;102153.63;5009662;28;20347;-49
2022/06/12 00:23:51;;;;;;;23.63;5.40;;;;;;;19.04;100.00;102159.50;5024122;28;20026;-51
2022/06/12 00:26:29;;;;;;;11.97;3.83;;;;;;;19.13;100.00;102156.53;5013319;28;20272;-50
2022/06/12 00:29:11;;;;;;;16.33;3.13;;;;;;;19.13;100.00;102154.66;5018009;28;20434;-49
2022/06/12 00:31:41;;;;;;;10.37;2.20;;;;;;;19.07;100.00;102158.25;5020167;28;20321;-50
2022/06/12 00:34:08;;;;;;;15.37;2.93;;;;;;;19.12;100.00;102150.28;5015893;28;20302;-48
2022/06/12 00:36:34;;;;;;;12.43;2.50;;;;;;;20.33;100.00;102157.19;5023123;28;20336;-54
2022/06/12 00:39:00;;;;;;;11.77;2.13;;;;;;;20.80;100.00;102153.00;5018586;28;20268;-51
2022/06/12 00:41:26;;;;;;;8.90;2.10;;;;;;;20.65;100.00;102145.25;5023694;28;20053;-48
2022/06/12 00:43:53;;;;;;;9.93;1.88;;;;;;;20.91;100.00;102144.06;5026755;28;20049;-45
2022/06/12 00:46:48;;;;;;;13.70;2.35;;;;;;;20.64;100.00;102138.16;5018120;28;20117;-51
2022/06/12 00:49:28;;;;;;;14.40;3.27;;;;;;;20.85;100.00;102144.16;5014065;28;20041;-51
2022/06/12 00:51:59;;;;;;;14.07;4.30;;;;;;;20.71;100.00;102147.03;5010910;28;20280;-50
2022/06/12 00:54:25;;;;;;;12.97;2.70;;;;;;;20.75;100.00;102156.38;5023710;28;20352;-51
2022/06/12 00:56:54;;;;;;;;;;;;;;;21.40;100.00;102153.91;5017163;28;20317;-50
2022/06/12 00:59:33;;;;;;;16.20;2.60;;;;;;;20.46;100.00;102149.91;5025879;28;19914;-49
2022/06/12 01:01:59;;;;;;;11.43;2.30;;;;;;;20.16;100.00;102146.13;5014593;28;20295;-50
2022/06/12 01:07:14;;;;;;;9.93;3.17;;;;;;;20.52;100.00;102151.72;5024476;28;19910;-52
2022/06/12 01:09:44;;;;;;;10.53;2.63;;;;;;;20.40;100.00;102158.97;5030027;28;20301;-49
2022/06/12 01:12:15;;;;;;;20.33;2.93;;;;;;;20.35;100.00;102154.25;5030365;28;20405;-54
2022/06/12 01:14:46;;;;;;;10.73;2.47;;;;;;;21.43;100.00;102149.88;5021115;28;20267;-48
2022/06/12 01:17:12;;;;;;;9.77;2.60;;;;;;;20.89;100.00;102156.22;5029784;28;20367;-50
2022/06/12 01:19:45;;;;;;;10.02;2.10;;;;;;;20.68;100.00;102147.50;5023123;28;20298;-46
2022/06/12 01:22:33;;;;;;;16.73;4.83;;;;;;;20.50;100.00;102156.53;5009041;28;20066;-49
2022/06/12 01:25:33;;;;;;;12.25;2.80;;;;;;;20.80;100.00;102147.56;5025854;28;20337;-47
2022/06/12 01:28:18;;;;;;;12.07;3.17;;;;;;;20.18;100.00;102148.59;5022381;28;20038;-47
2022/06/12 01:31:19;;;;;;;13.03;2.30;;;;;;;19.65;100.00;102142.69;5026475;28;20365;-46
2022/06/12 01:33:50;;;;;;;12.07;2.83;;;;;;;20.01;100.00;102148.38;4987308;28;20287;-49
2022/06/12 01:36:25;;;;;;;22.23;7.40;;;;;;;20.77;100.00;102142.56;5020135;28;20284;-49
2022/06/12 01:38:54;;;;;;;16.07;3.27;;;;;;;20.62;100.00;102151.16;5007806;28;20280;-50
2022/06/12 01:41:27;;;;;;;8.40;2.80;;;;;;;20.29;100.00;102147.00;5018025;28;20450;-48
2022/06/12 01:44:11;;;;;;;11.53;2.90;;;;;;;18.58;100.00;102139.78;5015152;28;20286;-49
2022/06/12 01:46:50;;;;;;;15.23;3.13;;;;;;;18.74;100.00;102138.44;5028547;28;20298;-47
2022/06/12 01:49:23;;;;;;;15.67;2.93;;;;;;;18.16;100.00;102136.66;5026318;28;20282;-46
2022/06/12 01:51:59;;;;;;;12.27;2.90;;;;;;;18.09;100.00;102136.69;5011201;28;20279;-50
2022/06/12 01:54:46;;;;;;;15.37;3.23;;;;;;;18.02;100.00;102138.59;5017813;28;20305;-49
2022/06/12 01:57:25;;;;;;;16.37;3.67;;;;;;;18.04;100.00;102131.09;5029590;28;20287;-51
2022/06/12 02:00:02;;;;;;;14.13;4.03;;;;;;;17.96;100.00;102134.84;5022214;28;20284;-52
2022/06/12 02:02:46;;;;;;;18.97;3.87;;;;;;;18.81;100.00;102127.56;5024502;28;20274;-50
2022/06/12 02:05:24;;;;;;;17.65;3.88;;;;;;;18.20;100.00;102132.47;5023543;28;20275;-50
2022/06/12 02:08:12;;;;;;;15.77;3.57;;;;;;;18.90;100.00;102128.94;5028559;28;20030;-47
2022/06/12 02:10:44;;;;;;;13.32;3.83;;;;;;;18.46;100.00;102128.81;5016572;28;20279;-48
2022/06/12 02:13:21;;;;;;;17.40;3.73;;;;;;;18.14;100.00;102123.34;5016731;28;20489;-48
2022/06/12 02:16:12;;;;;;;16.43;3.70;;;;;;;17.85;100.00;102120.09;5026245;28;20342;-47
2022/06/12 02:18:52;;;;;;;17.17;4.53;;;;;;;17.85;100.00;102125.50;5026729;28;20360;-46
2022/06/12 02:21:32;;;;;;;15.77;3.77;;;;;;;18.93;100.00;102124.97;5008593;28;20279;-47
2022/06/12 02:24:25;;;;;;;28.27;5.20;;;;;;;18.63;100.00;102126.41;5014943;28;20268;-47
2022/06/12 02:27:08;;;;;;;8.87;3.37;;;;;;;18.24;100.00;102127.47;5026797;28;20294;-51
2022/06/12 02:29:44;;;;;;;18.63;3.67;;;;;;;18.34;100.00;102128.69;5024205;28;20275;-47
2022/06/12 02:32:15;;;;;;;20.58;4.47;;;;;;;18.51;100.00;102130.84;5019729;28;20291;-53
2022/06/12 02:34:57;;;;;;;17.17;3.90;;;;;;;18.88;100.00;102128.34;5015188;28;20063;-51
2022/06/12 02:37:32;;;;;;;15.50;3.70;;;;;;;18.33;100.00;102131.59;5017841;28;20303;-53
2022/06/12 02:40:04;;;;;;;16.43;4.63;;;;;;;18.97;100.00;102126.19;5014832;28;20287;-49
2022/06/12 02:42:37;;;;;;;13.60;3.03;;;;;;;18.22;100.00;102129.53;5017986;28;20267;-52
2022/06/12 02:45:11;;;;;;;16.30;3.50;;;;;;;17.92;100.00;102130.91;5025726;28;20268;-47
2022/06/12 02:47:41;;;;;;;20.47;4.03;;;;;;;18.97;100.00;102115.34;5024434;28;20323;-47
2022/06/12 02:50:09;;;;;;;18.27;5.03;;;;;;;18.44;100.00;102117.34;5024577;28;20263;-50
2022/06/12 02:52:48;;;;;;;26.50;4.10;;;;;;;19.49;100.00;102119.69;5022569;28;20267;-53
2022/06/12 02:55:20;;;;;;;25.37;4.40;;;;;;;19.03;100.00;102114.47;5022449;28;20294;-56
2022/06/12 02:58:10;;;;;;;16.87;4.43;;;;;;;20.28;100.00;102121.72;5022604;28;20344;-52
2022/06/12 03:00:46;;;;;;;23.30;3.90;;;;;;;20.42;100.00;102119.66;5012519;28;20324;-50
2022/06/12 03:03:38;;;;;;;12.50;3.60;;;;;;;19.78;100.00;102126.28;5029471;28;20282;-48
2022/06/12 03:06:05;;;;;;;20.20;4.27;;;;;;;20.32;100.00;102128.34;5016102;28;20263;-51
2022/06/12 03:08:37;;;;;;;17.43;3.77;;;;;;;20.42;100.00;102118.84;5028245;28;20275;-52
2022/06/12 03:11:13;;;;;;;11.77;3.40;;;;;;;19.33;100.00;102116.50;5015565;28;20271;-51
2022/06/12 03:13:38;;;;;;;17.83;4.37;;;;;;;19.84;100.00;102134.56;5015680;28;20324;-53
2022/06/12 03:16:07;;;;;;;11.25;3.63;;;;;;;19.77;100.00;102129.22;5027640;28;20283;-51
2022/06/12 03:18:38;;;;;;;13.20;4.00;;;;;;;19.56;100.00;102135.91;5030172;28;20034;-50
2022/06/12 03:21:16;;;;;;;22.60;3.80;;;;;;;19.58;100.00;102128.38;5028075;28;20272;-50
2022/06/12 03:23:59;;;;;;;10.60;3.17;;;;;;;19.68;100.00;102125.16;5019956;28;20279;-51
2022/06/12 03:26:52;;;;;;;16.23;4.03;;;;;;;19.78;100.00;102118.13;5015214;28;20283;-51
2022/06/12 03:29:40;;;;;;;14.13;3.93;;;;;;;18.01;100.00;102117.97;5018701;28;20274;-53
2022/06/12 03:32:56;;;;;;;19.97;4.60;;;;;;;19.76;100.00;102135.69;5029875;28;20275;-50
2022/06/12 03:35:35;;;;;;;15.77;3.53;;;;;;;19.68;100.00;102131.38;4947088;28;20281;-50
2022/06/12 03:38:21;;;;;;;16.00;4.20;;;;;;;19.15;100.00;102136.28;4985107;28;20308;-48
2022/06/12 03:41:05;;;;;;;16.70;3.92;;;;;;;19.14;100.00;102136.50;4986598;28;20291;-48
2022/06/12 03:43:55;;;;;;;13.63;4.17;;;;;;;19.45;100.00;102142.91;4983473;28;20050;-50
2022/06/12 03:46:40;;;;;;;16.10;4.17;;;;;;;19.51;100.00;102136.56;4993424;28;20276;-47
2022/06/12 03:49:19;;;;;;;21.10;4.73;;;;;;;19.70;100.00;102128.47;4980164;28;20281;-48
2022/06/12 03:51:53;;;;;;;15.93;3.93;;;;;;;19.95;100.00;102130.28;4988083;28;20279;-50
2022/06/12 03:54:28;;;;;;;10.53;3.17;;;;;;;20.07;100.00;102136.63;4991062;28;20345;-52
2022/06/12 04:00:09;;;;;;;14.07;3.33;;;;;;;20.83;100.00;102128.06;4984912;28;20276;-47
2022/06/12 04:02:40;;;;;;;15.37;4.17;;;;;;;18.96;100.00;102138.06;4985180;28;20277;-51
2022/06/12 04:05:09;;;;;;;21.07;4.57;;;;;;;18.92;100.00;102134.16;4986046;28;20279;-53
2022/06/12 04:07:48;;;;;;;16.13;3.80;;;;;;;18.82;100.00;102136.50;4989984;28;20261;-48
2022/06/12 04:10:18;;;;;;;14.90;3.67;;;;;;;19.45;100.00;102140.19;4983638;28;20283;-50
2022/06/12 04:12:44;;;;;;;14.13;3.87;;;;;;;19.71;100.00;102140.97;4992339;28;20358;-48
2022/06/12 04:15:16;;;;;;;16.05;2.70;;;;;;;17.41;100.00;102129.75;4983711;28;20353;-49
2022/06/12 04:17:42;;;;;;;19.30;4.27;;;;;;;18.22;100.00;102129.53;4984890;28;20046;-49
2022/06/12 04:20:25;;;;;;;14.60;3.63;;;;;;;17.48;100.00;102126.00;4984097;28;20292;-46
2022/06/12 04:23:10;;;;;;;17.70;3.57;;;;;;;17.36;100.00;102132.25;4981529;28;20035;-50
2022/06/12 04:25:43;;;;;;;14.13;4.40;;;;;;;19.22;100.00;102132.66;4974389;28;20288;-50
2022/06/12 04:28:33;;;;;;;18.03;3.70;;;;;;;17.94;100.00;102130.66;4992951;28;20273;-48
2022/06/12 04:31:02;;;;;;;12.57;3.20;;;;;;;19.52;100.00;102143.66;4991138;28;20272;-50
2022/06/12 04:33:52;;;;;;;12.53;3.43;;;;;;;19.34;100.00;102142.56;4997405;28;20337;-48
2022/06/12 04:36:18;;;;;;;14.47;3.30;;;;;;;19.14;100.00;102139.19;5020156;28;20298;-47
2022/06/12 04:38:44;;;;;;;11.20;3.13;;;;;;;19.37;100.00;102140.47;5026081;28;20346;-50
2022/06/12 04:41:12;;;;;;;18.70;4.15;;;;;;;19.14;100.00;102139.19;5022835;28;20271;-53
2022/06/12 04:43:39;;;;;;;11.13;3.47;;;;;;;19.08;100.00;102142.81;5026293;28;20026;-46
2022/06/12 04:46:05;;;;;;;14.33;3.60;;;;;;;18.00;100.00;102148.78;5032321;28;21321;-47
2022/06/12 04:48:37;;;;;;;19.77;4.50;;;;;;;19.29;100.00;102150.53;5020609;28;20272;-48
2022/06/12 04:51:04;;;;;;;13.37;3.57;;;;;;;18.15;100.00;102152.06;5022029;28;20033;-50
2022/06/12 04:53:31;;;;;;;19.03;3.80;;;;;;;18.51;100.00;102146.28;5022036;28;20287;-49
2022/06/12 04:55:57;;;;;;;16.65;3.97;;;;;;;19.35;100.00;102148.84;5021013;28;20279;-48
2022/06/12 04:58:23;;;;;;;22.25;5.10;;;;;;;19.14;100.00;102139.19;5020802;28;20035;-50
2022/06/12 05:00:49;;;;;;;22.63;4.47;;;;;;;17.99;100.00;102141.69;5019698;28;20052;-52
2022/06/12 05:03:15;;;;;;;18.83;3.63;;;;;;;17.96;100.00;102142.09;5029974;28;20034;-51
2022/06/12 05:05:41;;;;;;;11.05;3.17;;;;;;;18.87;100.00;102139.38;5024658;28;20026;-46
2022/06/12 05:08:08;;;;;;;13.67;4.47;;;;;;;19.65;100.00;102142.69;5030951;28;20090;-50
2022/06/12 05:10:34;;;;;;;21.10;4.40;;;;;;;19.49;100.00;102141.41;5019492;28;20352;-48
2022/06/12 05:13:00;;;;;;;16.63;5.23;;;;;;;19.49;100.00;102144.13;5021337;28;20264;-51
2022/06/12 05:15:26;;;;;;;19.35;4.85;;;;;;;19.61;100.00;102147.75;5020695;28;20347;-47
2022/06/12 05:17:52;;;;;;;18.52;5.28;;;;;;;19.17;100.00;102144.22;5027832;28;20038;-47
2022/06/12 05:20:26;;;;;;;20.90;5.45;;;;;;;19.59;100.00;102149.03;5014507;28;20113;-49
2022/06/12 05:22:52;;;;;;;18.93;4.73;;;;;;;19.31;100.00;102153.88;5020193;28;20071;-46
2022/06/12 05:25:19;;;;;;;15.63;4.30;;;;;;;19.19;100.00;102158.38;5012917;28;20364;-47
2022/06/12 05:27:45;;;;;;;19.38;5.82;;;;;;;19.52;100.00;102151.81;5023228;28;20039;-53
2022/06/12 05:30:14;;;;;;;19.77;4.60;;;;;;;19.54;100.00;102152.41;5029829;28;20057;-52
2022/06/12 05:32:40;;;;;;;22.67;5.20;;;;;;;19.29;100.00;102153.25;5018339;28;20264;-49
2022/06/12 05:35:07;;;;;;;17.70;4.32;;;;;;;19.42;100.00;102146.06;5031415;28;20290;-49
2022/06/12 05:37:34;;;;;;;27.87;5.70;;;;;;;19.45;100.00;102160.00;5031798;28;20038;-51
2022/06/12 05:39:59;;;;;;;27.83;6.50;;;;;;;19.56;100.00;102155.72;5025170;28;20293;-51
2022/06/12 05:42:25;;;;;;;18.30;5.07;;;;;;;19.47;100.00;102152.47;5026441;28;20279;-46
2022/06/12 05:44:50;;;;;;;16.73;4.93;;;;;;;19.50;100.00;102151.19;5028645;28;20049;-52
2022/06/12 05:47:16;;;;;;;24.90;5.63;;;;;;;19.66;100.00;102155.22;5028755;28;20037;-49
2022/06/12 05:49:41;;;;;;;29.93;6.27;;;;;;;19.52;100.00;102159.94;5022497;28;20117;-46
2022/06/12 05:52:07;;;;;;;43.13;6.47;;;;;;;19.38;100.00;102159.25;5024737;28;20045;-50
2022/06/12 05:54:33;;;;;;;17.02;5.68;;;;;;;19.29;100.00;102160.59;5027318;28;20045;-48
2022/06/12 05:56:59;;;;;;;14.07;5.22;;;;;;;19.57;100.00;102164.72;5029202;28;20066;-47
2022/06/12 05:59:25;;;;;;;21.67;5.35;;;;;;;20.01;100.00;102161.97;5015237;28;20055;-49
2022/06/12 06:01:51;;;;;;;17.27;5.03;;;;;;;19.53;100.00;102167.03;5024679;28;20042;-48
2022/06/12 06:04:16;;;;;;;22.50;5.53;;;;;;;20.06;100.00;102159.38;5024184;28;20049;-48
2022/06/12 06:06:53;;;;;;;21.63;5.45;;;;;;;20.13;100.00;102160.16;5027359;28;20041;-47
2022/06/12 06:09:21;;;;;;;18.70;5.63;;;;;;;20.75;100.00;102161.81;5027423;28;20097;-47
2022/06/12 06:11:47;;;;;;;18.83;6.10;;;;;;;20.58;100.00;102169.81;5015437;28;20354;-50
2022/06/12 06:14:14;;;;;;;22.23;5.03;;;;;;;20.28;100.00;102161.63;5027951;28;20271;-50
2022/06/12 06:16:41;;;;;;;25.60;7.00;;;;;;;20.47;100.00;102170.59;5025700;28;20094;-48
2022/06/12 06:19:07;;;;;;;23.63;5.65;;;;;;;19.25;100.00;102171.03;5028379;28;20259;-51
2022/06/12 06:21:33;;;;;;;29.87;6.23;;;;;;;19.24;100.00;102161.25;5024441;28;20034;-50
2022/06/12 06:23:59;;;;;;;20.05;5.68;;;;;;;18.83;100.00;102163.41;5024048;28;20263;-49
2022/06/12 06:26:25;;;;;;;25.02;7.22;;;;;;;18.88;100.00;102173.56;5018898;28;20030;-50
2022/06/12 06:28:52;;;;;;;30.80;6.23;;;;;;;18.74;100.00;102170.97;5015512;28;20034;-49
2022/06/12 06:31:19;;;;;;;22.07;6.10;;;;;;;20.29;100.00;102183.16;5029008;28;20268;-52
2022/06/12 06:33:45;;;;;;;20.27;5.88;;;;;;;19.11;100.00;102183.03;5027622;28;20325;-48
2022/06/12 06:36:12;;;;;;;26.90;7.30;;;;;;;19.35;100.00;102176.78;5024132;28;20041;-49
2022/06/12 06:38:38;;;;;;;20.30;6.33;;;;;;;19.29;100.00;102182.28;5020540;28;20034;-50
2022/06/12 06:41:05;;;;;;;23.60;6.00;;;;;;;19.66;100.00;102184.25;5027389;28;20267;-48
2022/06/12 06:46:13;;;;;;;26.60;6.33;;;;;;;20.15;100.00;102185.19;5023762;28;20038;-50
2022/06/12 06:46:16;;;;;;;23.13;5.83;;;;;;;20.35;100.00;102186.84;5029640;28;20294;-48
2022/06/12 06:48:42;;;;;;;18.23;5.17;;;;;;;20.10;100.00;102187.78;5026711;28;20331;-49
2022/06/12 06:51:07;;;;;;;16.63;5.40;;;;;;;21.23;100.00;102183.72;5024218;28;20061;-51
2022/06/12 06:53:33;;;;;;;25.13;7.32;;;;;;;20.77;100.00;102195.06;5027353;28;20052;-50
2022/06/12 06:55:58;;;;;;;19.33;5.93;;;;;;;20.26;100.00;102194.47;5026764;28;20053;-50
2022/06/12 06:58:26;;;;;;;29.30;6.18;;;;;;;21.53;100.00;102193.66;5012101;28;20049;-49
2022/06/12 07:00:52;;;;;;;20.87;6.13;;;;;;;22.35;100.00;102199.25;5026368;28;20042;-52
2022/06/12 07:03:18;;;;;;;25.02;7.38;;;;;;;21.55;100.00;102191.53;5029084;28;20093;-50
2022/06/12 07:05:46;;;;;;;27.35;5.60;;;;;;;21.88;100.00;102206.44;5026282;28;20109;-48
2022/06/12 07:08:14;;;;;;;23.13;6.60;;;;;;;21.65;100.00;102196.41;5026668;28;20038;-50
2022/06/12 07:10:40;;;;;;;28.03;6.90;;;;;;;21.68;100.00;102206.81;5026259;28;20042;-48
2022/06/12 07:13:06;;;;;;;24.57;6.03;;;;;;;20.84;100.00;102213.19;5027915;28;20034;-48
2022/06/12 07:15:33;;;;;;;19.10;5.28;;;;;;;21.57;100.00;102197.56;5028059;28;20042;-50
2022/06/12 07:17:59;;;;;;;25.67;4.33;;;;;;;21.67;100.00;102199.72;5027575;28;20034;-51
2022/06/12 07:20:25;;;;;;;;;;;;;;;21.53;100.00;102203.72;5032139;28;20067;-51
2022/06/12 07:22:51;;;;;;;25.10;7.27;;;;;;;22.21;100.00;102204.13;5030123;28;19914;-50
2022/06/12 07:25:17;;;;;;;22.27;8.82;;;;;;;22.33;100.00;102201.38;5030202;28;20041;-49
2022/06/12 07:27:44;;;;;;;14.48;3.92;;;;;;;22.63;100.00;102205.81;5029104;28;20034;-48
2022/06/12 07:30:12;;;;;;;12.60;3.40;;;;;;;22.32;100.00;102206.00;5028733;28;20026;-48
2022/06/12 07:32:39;;;;;;;18.80;4.43;;;;;;;21.22;100.00;102208.44;5031467;28;20070;-50
2022/06/12 07:35:05;;;;;;;13.52;3.72;;;;;;;21.95;100.00;102206.31;5025866;28;20074;-49
2022/06/12 07:37:32;;;;;;;16.60;3.40;;;;;;;21.78;100.00;102217.13;5031201;28;20038;-50
2022/06/12 07:39:59;;;;;;;16.47;4.17;;;;;;;21.79;100.00;102218.78;5030096;28;20045;-49
2022/06/12 07:42:24;;;;;;;15.80;3.73;;;;;;;21.91;100.00;102222.34;5031772;28;20030;-49
2022/06/12 07:44:50;;;;;;;19.73;4.35;;;;;;;22.33;100.00;102218.56;5028020;28;20038;-51
2022/06/12 07:47:15;;;;;;;17.10;4.88;;;;;;;22.53;100.00;102214.63;5031399;28;20061;-50
2022/06/12 07:49:41;;;;;;;23.88;5.25;;;;;;;22.36;100.00;102214.50;5028740;28;20076;-48
2022/06/12 07:52:08;;;;;;;13.68;5.15;;;;;;;22.33;100.00;102217.72;5025874;28;20093;-50
2022/06/12 07:54:36;;;;;;;24.40;4.80;;;;;;;22.34;100.00;102208.47;5024393;28;20030;-49
2022/06/12 07:57:02;;;;;;;19.87;6.37;;;;;;;22.82;100.00;102213.78;5016166;28;20046;-53
2022/06/12 07:59:29;;;;;;;22.07;6.50;;;;;;;23.04;100.00;102214.72;5003274;28;20041;-51
2022/06/12 08:01:54;;;;;;;;;;;;;;;23.94;100.00;102220.47;5027416;28;20037;-49
2022/06/12 08:04:22;;;;;;;18.10;4.97;;;;;;;22.42;100.00;102207.28;5028254;28;19925;-50
2022/06/12 08:06:47;;;;;;;22.50;7.13;;;;;;;23.17;100.00;102216.28;5021681;28;20057;-47
2022/06/12 08:09:13;;;;;;;12.73;4.43;;;;;;;23.24;100.00;102216.13;5007344;28;20049;-50
2022/06/12 08:11:43;;;;;;;20.73;5.93;;;;;;;22.88;100.00;102210.91;5023281;28;20038;-48
2022/06/12 08:14:08;;;;;;;20.67;5.30;;;;;;;22.51;100.00;102210.47;5021560;28;20058;-48
2022/06/12 08:16:35;;;;;;;21.77;5.60;;;;;;;22.96;100.00;102215.13;5025085;28;20042;-46
2022/06/12 08:19:01;;;;;;;47.57;20.07;;;;;;;23.37;100.00;102216.91;5015030;28;20042;-59
2022/06/12 08:21:27;;;;;;;;;;;;;;;24.60;100.00;102223.22;5012865;28;20037;-54
2022/06/12 08:23:56;;;;;;;15.90;4.90;;;;;;;24.24;100.00;102222.00;5012188;28;19938;-55
2022/06/12 08:26:26;;;;;;;18.17;5.30;;;;;;;24.60;100.00;102222.38;5013631;28;20038;-53
2022/06/12 08:29:04;;;;;;;21.53;4.60;;;;;;;23.50;100.00;102202.91;5016789;28;20030;-54
2022/06/12 08:31:38;;;;;;;19.00;4.50;;;;;;;23.20;100.00;102207.63;5011919;28;20040;-50
2022/06/12 08:34:10;;;;;;;18.97;5.57;;;;;;;23.36;100.00;102209.81;5012402;28;20050;-51
2022/06/12 08:36:36;;;;;;;16.17;4.17;;;;;;;23.25;100.00;102214.25;5020565;28;20045;-53
2022/06/12 08:39:03;;;;;;;;;;;;;;;23.15;100.00;102206.72;5018279;28;20040;-48
2022/06/12 08:41:48;;;;;;;20.15;4.88;;;;;;;24.32;100.00;102213.31;5028582;28;19960;-49
2022/06/12 08:44:43;;;;;;;14.03;4.47;;;;;;;23.72;100.00;102215.78;5021376;28;20034;-50
2022/06/12 08:47:24;;;;;;;16.07;4.30;;;;;;;24.21;100.00;102215.09;5026137;28;20068;-51
2022/06/12 08:49:52;;;;;;;20.60;4.30;;;;;;;22.99;100.00;102211.09;5023694;28;20065;-51
2022/06/12 08:52:59;;;;;;;16.20;4.53;;;;;;;23.41;100.00;102205.25;5023469;28;20040;-48
2022/06/12 08:55:33;;;;;;;15.87;3.70;;;;;;;23.55;100.00;102194.81;5008040;28;20118;-49
2022/06/12 08:58:11;;;;;;;14.93;3.90;;;;;;;23.41;100.00;102191.63;5018865;28;20042;-52
2022/06/12 09:00:38;;;;;;;18.67;3.97;;;;;;;23.68;100.00;102187.34;5018610;28;20125;-51
2022/06/12 09:03:08;;;;;;;13.17;3.53;;;;;;;23.95;100.00;102186.59;5021618;28;20034;-50
2022/06/12 09:06:07;;;;;;;14.77;3.43;;;;;;;23.53;100.00;102188.78;5023356;28;20022;-54
2022/06/12 09:08:38;;;;;;;15.07;3.83;;;;;;;23.84;100.00;102186.47;5035095;28;20109;-53
2022/06/12 09:11:14;;;;;;;16.07;3.47;;;;;;;24.23;100.00;102188.34;5012012;28;20038;-50
2022/06/12 09:13:55;;;;;;;15.18;2.85;;;;;;;24.16;100.00;102188.53;5023710;28;20034;-52
2022/06/12 09:16:42;;;;;;;12.47;2.80;;;;;;;24.31;100.00;102182.41;5021740;28;20050;-49
2022/06/12 09:19:15;;;;;;;;;;;;;;;24.68;100.00;102185.53;5024057;28;20042;-52
2022/06/12 09:22:09;;;;;;;14.20;3.93;;;;;;;24.32;100.00;102181.34;5017800;28;19924;-52
2022/06/12 09:25:06;;;;;;;12.63;3.10;;;;;;;24.81;100.00;102198.00;5016324;28;20041;-49
2022/06/12 09:27:44;;;;;;;9.52;2.92;;;;;;;24.36;100.00;102187.13;5009785;28;20093;-51
2022/06/12 09:30:17;;;;;;;13.00;2.83;;;;;;;24.23;100.00;102187.53;5016174;28;20038;-47
2022/06/12 09:33:05;;;;;;;15.57;3.50;;;;;;;24.62;100.00;102180.03;5015677;28;20034;-52
2022/06/12 09:35:41;;;;;;;;;;;;;;;24.97;100.00;102190.75;4981870;28;20054;-53
2022/06/12 09:38:34;;;;;;;11.27;3.37;;;;;;;25.73;100.00;102177.88;4973767;28;19940;-50
2022/06/12 09:41:17;;;;;;;13.57;3.27;;;;;;;25.10;100.00;102194.97;4987896;28;20031;-53
2022/06/12 09:44:12;;;;;;;11.50;3.33;;;;;;;25.64;100.00;102188.50;4990145;28;20137;-52
2022/06/12 09:46:50;;;;;;;12.70;2.70;;;;;;;26.28;100.00;102189.38;4979890;28;20036;-48
2022/06/12 09:49:46;;;;;;;14.23;2.60;;;;;;;25.72;100.00;102193.50;5000151;28;20061;-51
2022/06/12 09:52:36;;;;;;;14.10;2.95;;;;;;;26.76;100.00;102188.34;4983980;28;20128;-52
2022/06/12 09:55:30;;;;;;;13.50;2.93;;;;;;;28.19;100.00;102190.34;4988787;28;20042;-48
2022/06/12 09:58:06;;;;;;;13.03;2.70;;;;;;;27.77;100.00;102181.41;4973468;28;20039;-47
2022/06/12 10:00:55;;;;;;;11.95;2.97;;;;;;;28.77;96.38;102186.13;4972933;28;20039;-50
2022/06/12 10:03:25;;;;;;;11.33;2.47;;;;;;;28.73;92.71;102196.88;4971792;28;20058;-50
2022/06/12 10:06:03;;;;;;;8.05;2.90;;;;;;;27.88;95.11;102190.44;4981028;28;20036;-53
2022/06/12 10:08:49;;;;;;;14.55;4.68;;;;;;;28.47;88.16;102199.81;4991200;28;20026;-52
2022/06/12 10:11:46;;;;;;;14.95;4.85;;;;;;;28.21;90.51;102190.88;4986733;28;20102;-52
2022/06/12 10:14:22;;;;;;;15.73;5.05;;;;;;;28.20;96.78;102191.97;4996831;28;20038;-53
2022/06/12 10:16:54;;;;;;;14.50;3.38;;;;;;;30.05;85.86;102190.66;4976419;28;20107;-47
2022/06/12 10:19:26;;;;;;;10.10;2.67;;;;;;;30.84;76.03;102200.28;4973952;28;20054;-48
2022/06/12 10:21:54;;;;;;;8.52;2.25;;;;;;;28.78;85.29;102196.00;4975578;28;20098;-50
2022/06/12 10:24:21;;;;;;;9.45;2.90;;;;;;;29.45;78.84;102189.13;4980522;28;20077;-51
2022/06/12 10:27:06;;;;;;;10.77;2.47;;;;;;;29.51;77.84;102187.94;4975379;28;20035;-46
2022/06/12 10:29:55;;;;;;;8.43;2.13;;;;;;;28.67;80.13;102189.75;4976108;28;20037;-50
2022/06/12 10:32:28;;;;;;;8.02;2.25;;;;;;;29.86;73.26;102193.34;4974074;28;20039;-50
2022/06/12 10:35:14;;;;;;;9.93;2.22;;;;;;;28.70;76.16;102191.09;5007233;28;20054;-47
2022/06/12 10:37:39;;;;;;;10.40;2.35;;;;;;;29.74;74.77;102179.97;5021720;28;20075;-53
2022/06/12 10:40:16;;;;;;;7.15;2.10;;;;;;;30.71;72.15;102193.59;5012652;28;20046;-48
2022/06/12 10:43:01;;;;;;;11.85;2.22;;;;;;;29.90;69.45;102186.13;5026472;28;20034;-50
2022/06/12 10:45:33;;;;;;;7.70;1.98;;;;;;;29.08;69.94;102199.66;5026090;28;20046;-48
2022/06/12 10:48:02;;;;;;;8.07;1.92;;;;;;;29.26;70.48;102184.31;5014452;28;20034;-48
2022/06/12 10:50:47;;;;;;;8.45;2.30;;;;;;;30.33;65.63;102185.28;5019148;28;20038;-48
2022/06/12 10:53:16;;;;;;;8.30;1.92;;;;;;;30.17;63.95;102182.75;5023829;28;20083;-52
2022/06/12 10:56:07;;;;;;;8.38;1.80;;;;;;;30.06;65.53;102175.75;5028287;28;20026;-49
2022/06/12 10:58:49;;;;;;;9.55;2.47;;;;;;;32.81;56.06;102193.50;5025772;28;20055;-47
2022/06/12 11:01:34;;;;;;;6.93;2.13;;;;;;;31.98;57.11;102176.06;5031403;28;20041;-48
2022/06/12 11:04:24;;;;;;;6.30;2.38;;;;;;;32.09;53.87;102178.59;5012579;28;20066;-52
2022/06/12 11:07:11;;;;;;;8.18;2.05;;;;;;;30.94;58.41;102176.34;5021817;28;20025;-49
2022/06/12 11:09:55;;;;;;;;;;;;;;;31.35;55.38;102175.66;5020132;28;20049;-51
2022/06/12 11:12:38;;;;;;;9.07;2.30;;;;;;;31.26;55.77;102172.78;5007381;28;19917;-51
2022/06/12 11:15:49;;;;;;;8.45;2.05;;;;;;;31.08;56.54;102171.69;5028007;28;20036;-50
2022/06/12 11:18:47;;;;;;;9.55;1.92;;;;;;;30.63;58.71;102176.88;5008874;28;20053;-51
2022/06/12 11:21:36;;;;;;;10.32;3.10;;;;;;;31.48;55.23;102174.00;5022323;28;20050;-54
2022/06/12 11:24:19;;;;;;;8.05;3.33;;;;;;;30.83;55.08;102167.44;5026154;28;20059;-50
2022/06/12 11:27:05;;;;;;;14.90;3.05;;;;;;;29.58;56.87;102166.38;5028585;28;20162;-51
2022/06/12 11:30:03;;;;;;;8.55;2.60;;;;;;;29.70;60.10;102167.88;5028388;28;20034;-53
2022/06/12 11:33:07;;;;;;;6.15;2.30;;;;;;;30.32;60.59;102172.63;5017793;28;20054;-50
2022/06/12 11:35:41;;;;;;;9.35;3.00;;;;;;;30.70;59.95;102180.91;5026744;28;20046;-50
2022/06/12 11:38:22;;;;;;;19.80;9.70;;;;;;;29.07;68.71;102175.16;5018436;28;20050;-52
2022/06/12 11:41:01;;;;;;;8.43;3.05;;;;;;;30.54;61.17;102173.94;5029807;28;20046;-51
2022/06/12 11:43:41;;;;;;;9.05;2.63;;;;;;;30.65;59.63;102169.94;5028544;28;20042;-53
2022/06/12 11:46:24;;;;;;;9.48;2.88;;;;;;;30.45;59.82;102171.03;5025000;28;20041;-49
2022/06/12 11:49:15;;;;;;;6.60;2.08;;;;;;;31.30;53.97;102173.78;5024652;28;20026;-51
2022/06/12 11:52:12;;;;;;;9.32;3.90;;;;;;;30.17;56.04;102162.63;5024964;28;20067;-51
2022/06/12 11:54:59;;;;;;;10.05;2.40;;;;;;;30.26;54.27;102168.31;5029488;28;20033;-52